createdAt,value
2023-05-08T00:00:44.323Z,63.38
2023-05-08T00:15:46.459Z,63.78
2023-05-08T00:30:48.330Z,64.02
2023-05-08T00:45:50.486Z,65.06
2023-05-08T01:00:55.648Z,65.82
2023-05-08T01:16:12.298Z,65.38
2023-05-08T01:31:23.197Z,65.27
2023-05-08T01:46:28.342Z,65.49
2023-05-08T02:01:33.455Z,67.32
2023-05-08T02:16:37.930Z,67.11
2023-05-08T02:31:41.568Z,67.23
2023-05-08T02:47:05.673Z,67.43
2023-05-08T03:02:40.668Z,67.48
2023-05-08T03:17:45.136Z,66.55
2023-05-08T03:32:48.296Z,66.34
2023-05-08T03:47:53.955Z,65.13
2023-05-08T04:03:03.070Z,60.63
2023-05-08T04:18:15.117Z,58.28
2023-05-08T04:33:18.708Z,57.67
2023-05-08T04:48:20.661Z,56.76
2023-05-08T05:03:22.574Z,55.31
2023-05-08T05:18:24.476Z,52.48
2023-05-08T05:33:26.368Z,48.62
2023-05-08T05:48:28.255Z,47.21
2023-05-08T06:03:30.205Z,44.88
2023-05-08T06:18:32.092Z,45.36
2023-05-08T06:33:33.866Z,44.91
2023-05-08T06:48:35.842Z,45.04
2023-05-08T07:03:37.764Z,45.88
2023-05-08T07:18:39.645Z,46.09
2023-05-08T07:33:41.464Z,47.10
2023-05-08T07:48:43.769Z,45.95
2023-05-08T08:03:46.313Z,45.51
2023-05-08T08:18:48.282Z,44.02
2023-05-08T08:33:50.059Z,45.68
2023-05-08T08:48:54.823Z,47.23
2023-05-08T09:04:00.063Z,47.87
2023-05-08T09:19:04.569Z,49.35
2023-05-08T09:34:08.682Z,50.97
2023-05-08T09:49:18.480Z,51.43
2023-05-08T10:04:34.440Z,49.83
2023-05-08T10:19:42.325Z,50.80
2023-05-08T10:34:46.852Z,51.16
2023-05-08T10:50:04.346Z,49.01
2023-05-08T11:05:16.625Z,46.97
2023-05-08T11:20:24.696Z,47.08
2023-05-08T11:35:42.752Z,45.88
2023-05-08T11:50:44.764Z,45.00
2023-05-08T12:05:47.826Z,41.58
2023-05-08T12:21:00.176Z,43.40
2023-05-08T12:36:02.955Z,45.10
2023-05-08T12:51:05.658Z,44.50
2023-05-08T13:06:08.207Z,46.42
2023-05-08T13:21:10.128Z,50.78
2023-05-08T13:36:12.028Z,55.10
2023-05-08T13:51:13.808Z,55.33
2023-05-08T14:06:15.749Z,58.13
2023-05-08T14:21:17.623Z,59.84
2023-05-08T14:36:19.661Z,60.69
2023-05-08T14:51:21.471Z,61.60
2023-05-08T15:06:25.385Z,63.43
2023-05-08T15:21:27.524Z,66.65
2023-05-08T15:36:31.651Z,66.52
2023-05-08T15:51:33.568Z,66.76
2023-05-08T16:06:35.843Z,68.44
2023-05-08T16:21:37.841Z,67.16
2023-05-08T16:36:39.748Z,67.77
2023-05-08T16:51:41.737Z,68.83
2023-05-08T17:06:43.690Z,68.12
2023-05-08T17:21:45.659Z,67.04
2023-05-08T17:36:47.597Z,69.61
2023-05-08T17:51:49.559Z,70.34
2023-05-08T18:06:51.925Z,70.49
2023-05-08T18:21:53.881Z,72.53
2023-05-08T18:36:57.542Z,72.24
2023-05-08T18:52:00.134Z,70.84
2023-05-08T19:07:02.113Z,69.57
2023-05-08T19:22:04.027Z,71.21
2023-05-08T19:37:06.689Z,71.33
2023-05-08T19:52:08.925Z,68.84
2023-05-08T20:07:11.170Z,71.29
2023-05-08T20:22:13.134Z,68.81
2023-05-08T20:37:16.143Z,70.16
2023-05-08T20:52:18.119Z,73.03
2023-05-08T21:07:20.160Z,72.12
2023-05-08T21:22:22.109Z,74.13
2023-05-08T21:37:24.168Z,72.44
2023-05-08T21:52:26.229Z,73.62
2023-05-08T22:07:28.295Z,71.91
2023-05-08T22:22:30.316Z,74.87
2023-05-08T22:37:32.339Z,73.44
2023-05-08T22:52:38.480Z,72.86
2023-05-08T23:07:41.381Z,72.31
2023-05-08T23:22:43.410Z,74.14
